Time;durP1;ratioP1;P1;durP2;ratioP2;P2;SDS_P1;SDS_P2;PMS_P1;PMS_P2;Temp;Humidity;BMP_temperature;BMP_pressure;BME280_temperature;BME280_humidity;BME280_pressure;Samples;Min_cycle;Max_cycle;Signal;HPM_P1;HPM_P2
2022/01/22 05:00:43;;;;;;;8.32;5.43;;;;;;;-9.45;100.00;94911.75;5889129;23;20078;-75
2022/01/22 05:03:09;;;;;;;13.10;6.38;;;;;;;-9.36;100.00;94916.44;4934625;29;20611;-75
2022/01/22 05:05:35;;;;;;;9.95;5.70;;;;;;;-9.21;100.00;94924.22;4960687;28;20489;-76
2022/01/22 05:08:00;;;;;;;10.25;6.10;;;;;;;-9.04;100.00;94896.06;4953925;28;20122;-76
2022/01/22 05:10:26;;;;;;;11.65;4.95;;;;;;;-8.71;100.00;94899.00;4955484;28;20023;-76
2022/01/22 05:12:53;;;;;;;18.00;5.82;;;;;;;-8.46;100.00;94909.72;4952594;28;20047;-75
2022/01/22 05:15:19;;;;;;;47.25;21.73;;;;;;;-8.26;100.00;94898.88;4954978;28;20069;-76
2022/01/22 05:17:45;;;;;;;31.90;18.77;;;;;;;-8.12;100.00;94902.47;4970839;28;20038;-76
2022/01/22 05:20:19;;;;;;;25.23;13.13;;;;;;;-8.02;100.00;94903.72;4937747;28;20027;-75
2022/01/22 05:22:56;;;;;;;78.32;29.20;;;;;;;-8.25;100.00;94903.81;4939117;28;20069;-76
2022/01/22 05:25:31;;;;;;;31.25;13.63;;;;;;;-8.30;100.00;94899.91;4953315;28;20026;-76
2022/01/22 05:38:27;;;;;;;9.75;6.95;;;;;;;-8.16;100.00;94898.47;4952840;28;20105;-76
2022/01/22 05:40:53;;;;;;;33.80;13.80;;;;;;;-8.04;100.00;94887.91;4936326;28;20508;-76
2022/01/22 05:43:18;;;;;;;21.42;10.45;;;;;;;-7.98;100.00;94886.84;4951959;28;20042;-76
2022/01/22 05:45:44;;;;;;;15.63;10.25;;;;;;;-7.88;100.00;94884.78;4948592;28;20118;-75
2022/01/22 05:48:09;;;;;;;21.25;10.02;;;;;;;-7.85;100.00;94887.16;4937702;28;20105;-75
2022/01/22 05:51:00;;;;;;;16.98;8.82;;;;;;;-7.74;100.00;94885.03;4938396;28;20030;-75
2022/01/22 06:01:18;;;;;;;32.20;12.18;;;;;;;-7.73;100.00;94861.50;4948510;28;20554;-76
2022/01/22 06:03:44;;;;;;;23.23;11.88;;;;;;;-7.42;100.00;94878.63;4943350;28;20027;-77
2022/01/22 06:06:10;;;;;;;23.48;9.02;;;;;;;-7.12;100.00;94883.13;4929284;28;20030;-77
2022/01/22 06:08:45;;;;;;;23.67;12.82;;;;;;;-6.91;100.00;94876.34;4940484;28;20023;-76
2022/01/22 06:11:12;;;;;;;27.17;16.10;;;;;;;-6.95;100.00;94883.19;4930496;28;20026;-76
2022/01/22 06:13:44;;;;;;;22.85;12.02;;;;;;;-6.90;100.00;94874.63;4933439;28;20046;-76
2022/01/22 06:16:14;;;;;;;17.70;9.63;;;;;;;-6.70;100.00;94877.03;4936169;28;20121;-76
2022/01/22 06:18:40;;;;;;;17.83;9.23;;;;;;;-6.63;100.00;94880.91;4927899;28;20030;-75
2022/01/22 06:21:06;;;;;;;9.88;6.38;;;;;;;-6.57;100.00;94875.59;4948099;28;20035;-75
2022/01/22 06:23:31;;;;;;;16.42;8.38;;;;;;;-6.41;100.00;94879.03;4933330;28;20031;-75
2022/01/22 06:26:00;;;;;;;17.05;9.88;;;;;;;-6.39;100.00;94874.75;4945722;28;20035;-75
2022/01/22 06:28:30;;;;;;;14.88;8.68;;;;;;;-6.17;100.00;94880.41;4946969;28;20027;-75
2022/01/22 06:30:56;;;;;;;19.48;9.90;;;;;;;-6.25;100.00;94861.50;4931683;28;20031;-75
2022/01/22 06:33:21;;;;;;;16.42;8.55;;;;;;;-6.10;100.00;94871.63;4934491;28;20033;-75
2022/01/22 06:35:47;;;;;;;12.25;8.73;;;;;;;-6.16;100.00;94858.53;4964874;28;20608;-75
2022/01/22 06:38:13;;;;;;;16.55;8.32;;;;;;;-5.89;100.00;94877.34;4967289;28;20496;-75
2022/01/22 06:43:04;;;;;;;18.35;8.15;;;;;;;-5.78;100.00;94864.22;4944585;28;20121;-75
2022/01/22 06:45:30;;;;;;;15.00;7.35;;;;;;;-5.73;100.00;94882.41;4933838;28;20030;-75
2022/01/22 06:47:55;;;;;;;12.80;7.72;;;;;;;-5.85;100.00;94860.38;4944718;28;20027;-75
2022/01/22 06:50:21;;;;;;;15.45;7.70;;;;;;;-5.58;100.00;94879.94;4948167;28;20027;-75
2022/01/22 06:52:47;;;;;;;13.63;8.07;;;;;;;-5.50;100.00;94874.53;4941845;28;20447;-75
2022/01/22 06:55:16;;;;;;;11.50;7.80;;;;;;;-5.18;100.00;94880.47;4946298;28;20086;-74
2022/01/22 06:57:42;;;;;;;9.45;7.18;;;;;;;-4.87;100.00;94875.44;4930383;28;20033;-74
2022/01/22 07:00:08;;;;;;;14.18;8.05;;;;;;;-4.67;100.00;94862.56;4941667;28;20023;-74
2022/01/22 07:02:34;;;;;;;13.00;8.85;;;;;;;-4.74;100.00;94852.88;4949730;28;20109;-74
2022/01/22 07:04:59;;;;;;;20.77;11.50;;;;;;;-4.92;100.00;94850.47;4927224;28;20031;-75
2022/01/22 07:07:25;;;;;;;17.75;10.63;;;;;;;-4.67;100.00;94841.56;4945970;28;20035;-74
2022/01/22 07:09:50;;;;;;;18.30;10.23;;;;;;;-4.61;100.00;94846.28;4939065;28;20037;-74
2022/01/22 07:12:16;;;;;;;17.13;8.00;;;;;;;-4.21;100.00;94840.69;4938766;28;20037;-75
2022/01/22 07:14:42;;;;;;;9.90;7.35;;;;;;;-4.18;100.00;94847.25;4943665;28;20134;-75
2022/01/22 07:17:08;;;;;;;12.45;7.88;;;;;;;-4.08;100.00;94836.56;4964780;28;20082;-74
2022/01/22 07:19:39;;;;;;;16.38;7.65;;;;;;;-2.98;100.00;94841.84;4947779;28;20114;-75
2022/01/22 07:22:19;;;;;;;11.90;7.05;;;;;;;-0.56;89.08;94835.22;4956304;28;20496;-74
2022/01/22 07:24:44;;;;;;;23.17;10.37;;;;;;;-0.05;83.31;94820.56;4949130;28;20018;-74
2022/01/22 07:27:10;;;;;;;20.40;10.02;;;;;;;-1.91;88.68;94830.88;4931242;28;20042;-76
2022/01/22 07:29:35;;;;;;;18.45;9.95;;;;;;;-1.19;87.81;94817.59;4947984;28;20046;-76
2022/01/22 07:32:02;;;;;;;12.63;8.68;;;;;;;-2.32;91.06;94823.41;4935926;28;20043;-76
2022/01/22 07:34:28;;;;;;;15.00;8.48;;;;;;;-1.88;91.39;94830.69;4957521;28;20065;-76
2022/01/22 07:36:53;;;;;;;11.73;7.60;;;;;;;-0.01;84.81;94822.78;4945482;28;20168;-76
2022/01/22 07:39:19;;;;;;;8.05;6.18;;;;;;;-0.44;80.34;94813.22;4933361;28;20050;-75
2022/01/22 07:41:44;;;;;;;8.35;6.70;;;;;;;0.36;79.79;94805.63;4968833;28;20500;-75
2022/01/22 07:44:10;;;;;;;10.30;6.25;;;;;;;2.16;72.17;94800.09;4948709;28;20058;-76
2022/01/22 07:46:35;;;;;;;9.98;6.20;;;;;;;3.34;57.93;94806.31;4968768;28;20612;-76
2022/01/22 07:49:03;;;;;;;7.07;6.22;;;;;;;4.37;53.96;94791.28;4965977;28;20405;-76
2022/01/22 07:51:29;;;;;;;10.55;8.40;;;;;;;2.18;58.44;94799.06;4935735;28;20424;-75
2022/01/22 07:53:54;;;;;;;9.13;6.72;;;;;;;1.67;60.55;94806.56;4950622;28;20043;-75
2022/01/22 07:56:20;;;;;;;9.98;5.60;;;;;;;1.84;61.40;94798.38;4950126;28;20029;-74
2022/01/22 07:58:45;;;;;;;7.30;5.93;;;;;;;2.77;57.28;94789.03;4968267;28;20027;-75
2022/01/22 08:01:11;;;;;;;13.20;5.88;;;;;;;3.86;54.98;94787.28;4966328;28;20576;-74
2022/01/22 08:03:36;;;;;;;11.30;5.97;;;;;;;-0.07;63.61;94789.31;4950104;28;20026;-75
2022/01/22 08:06:02;;;;;;;8.45;5.80;;;;;;;0.68;68.61;94800.66;4932167;28;20108;-75
2022/01/22 08:08:27;;;;;;;10.23;7.25;;;;;;;3.42;56.89;94783.47;4935422;28;20183;-76
2022/01/22 08:10:53;;;;;;;9.82;6.80;;;;;;;2.71;56.80;94783.63;4949629;28;20026;-75
2022/01/22 08:13:21;;;;;;;10.82;6.90;;;;;;;1.03;62.23;94788.63;4949197;28;20022;-75
2022/01/22 08:15:46;;;;;;;13.45;7.15;;;;;;;1.83;62.99;94799.31;4950145;28;20030;-75
2022/01/22 08:18:12;;;;;;;12.23;7.10;;;;;;;2.01;61.58;94794.50;4932182;28;20088;-75
2022/01/22 08:20:38;;;;;;;11.95;6.97;;;;;;;1.96;61.21;94799.97;4931070;28;20708;-75
2022/01/22 08:23:03;;;;;;;10.38;8.02;;;;;;;1.27;62.73;94795.31;4926126;28;20035;-74
2022/01/22 08:25:31;;;;;;;10.57;7.18;;;;;;;2.40;60.53;94786.16;4961837;28;20091;-75
2022/01/22 08:28:53;;;;;;;16.23;8.80;;;;;;;1.18;63.43;94799.38;4931205;28;20448;-75
2022/01/22 08:30:45;;;;;;;14.70;9.35;;;;;;;1.53;63.60;94783.91;4949742;28;20030;-74
2022/01/22 08:35:55;;;;;;;11.63;7.28;;;;;;;5.47;51.53;94773.34;4947625;28;20478;-75
2022/01/22 08:38:22;;;;;;;7.10;6.10;;;;;;;5.26;52.08;94772.78;4949946;28;20026;-74
2022/01/22 08:40:48;;;;;;;8.35;6.18;;;;;;;6.84;47.84;94759.06;4931896;28;20031;-75
2022/01/22 08:43:13;;;;;;;7.75;5.90;;;;;;;5.27;50.33;94759.00;4966077;28;20097;-75
2022/01/22 08:45:40;;;;;;;7.90;5.72;;;;;;;3.47;56.84;94747.22;4945380;28;20046;-76
2022/01/22 08:48:05;;;;;;;9.45;5.95;;;;;;;4.73;50.85;94754.63;4930216;29;20066;-76
2022/01/22 08:50:33;;;;;;;9.02;6.28;;;;;;;5.71;52.46;94765.09;4921143;29;20473;-76
2022/01/22 08:52:59;;;;;;;8.95;6.47;;;;;;;7.12;45.49;94758.88;4964393;28;20035;-76
2022/01/22 08:55:24;;;;;;;10.27;6.35;;;;;;;8.40;43.87;94750.63;4934919;28;20085;-76
2022/01/22 08:57:51;;;;;;;9.15;7.13;;;;;;;9.04;41.36;94748.88;4948470;28;20035;-76
2022/01/22 09:00:19;;;;;;;7.95;6.22;;;;;;;9.55;40.29;94750.13;4949802;28;20130;-76
2022/01/22 09:02:46;;;;;;;8.73;6.57;;;;;;;10.55;38.49;94734.41;4948578;28;20047;-76
2022/01/22 09:05:15;;;;;;;7.57;6.50;;;;;;;10.72;38.66;94735.06;4950251;28;20069;-76
2022/01/22 09:07:40;;;;;;;6.47;5.70;;;;;;;8.76;41.49;94735.56;4950493;28;20058;-76
2022/01/22 09:10:06;;;;;;;7.65;6.43;;;;;;;10.75;37.83;94736.50;4966192;28;20070;-78
2022/01/22 09:12:32;;;;;;;8.35;6.13;;;;;;;11.41;36.35;94728.59;4968372;28;20027;-79
2022/01/22 09:14:57;;;;;;;6.75;6.05;;;;;;;9.59;38.18;94735.06;4932723;28;20026;-77
2022/01/22 09:17:23;;;;;;;7.68;5.93;;;;;;;4.20;50.25;94750.06;4950669;28;20023;-78
2022/01/22 09:19:49;;;;;;;8.05;6.45;;;;;;;5.30;48.45;94726.13;4933646;28;20050;-76
2022/01/22 09:22:15;;;;;;;9.13;6.15;;;;;;;2.41;56.98;94741.78;4950401;28;20035;-76
2022/01/22 09:24:40;;;;;;;8.07;4.80;;;;;;;1.04;62.01;94743.53;4933431;28;20027;-76
2022/01/22 09:27:07;;;;;;;6.28;4.95;;;;;;;0.84;66.96;94757.00;4950182;28;20760;-76
2022/01/22 09:29:34;;;;;;;7.03;4.95;;;;;;;1.24;62.70;94749.66;4930188;28;20039;-76
2022/01/22 09:32:00;;;;;;;8.45;5.50;;;;;;;0.84;68.94;94749.34;4913906;28;20102;-76
2022/01/22 09:34:25;;;;;;;8.23;6.20;;;;;;;0.32;69.95;94750.75;4949994;28;20031;-75
2022/01/22 09:36:51;;;;;;;6.57;5.32;;;;;;;0.06;75.51;94745.97;4948214;28;20031;-76
2022/01/22 09:39:17;;;;;;;9.20;5.50;;;;;;;0.60;73.29;94749.50;4934280;28;20027;-75
2022/01/22 09:41:42;;;;;;;7.22;5.35;;;;;;;-0.20;71.95;94742.78;4960036;28;20054;-76
2022/01/22 09:44:08;;;;;;;7.07;4.38;;;;;;;-0.50;78.88;94728.00;4964926;28;20551;-75
2022/01/22 09:46:34;;;;;;;6.45;4.60;;;;;;;0.22;75.70;94736.28;4933660;29;20059;-76
2022/01/22 09:48:59;;;;;;;6.10;4.55;;;;;;;-0.14;75.46;94724.53;4950990;29;20035;-75
2022/01/22 09:51:25;;;;;;;9.50;5.60;;;;;;;0.05;74.96;94724.00;4954065;28;20506;-77
2022/01/22 09:53:56;;;;;;;13.82;6.18;;;;;;;-0.11;75.25;94709.88;4947035;28;20031;-78
2022/01/22 09:56:23;;;;;;;6.45;5.30;;;;;;;3.13;62.80;94708.41;4936708;28;20039;-76
2022/01/22 09:58:50;;;;;;;8.77;4.90;;;;;;;1.11;69.49;94706.47;4934865;28;20030;-76
2022/01/22 10:01:24;;;;;;;5.68;4.88;;;;;;;-0.27;74.37;94718.72;4952114;28;20047;-76
2022/01/22 10:03:51;;;;;;;6.03;4.68;;;;;;;-0.21;75.06;94713.19;4951874;28;20579;-76
2022/01/22 10:06:19;;;;;;;6.68;4.25;;;;;;;0.19;74.13;94699.16;4951452;28;20031;-75
2022/01/22 10:08:45;;;;;;;6.03;3.67;;;;;;;3.36;61.95;94691.06;4951585;28;20031;-76
2022/01/22 10:11:17;;;;;;;5.18;2.85;;;;;;;5.11;47.55;94686.94;4968846;28;20058;-76
2022/01/22 10:13:45;;;;;;;5.40;2.72;;;;;;;0.69;60.32;94697.03;4936653;28;20057;-75
2022/01/22 10:16:19;;;;;;;3.25;2.10;;;;;;;7.96;42.94;94675.28;4947502;28;20027;-76
2022/01/22 10:18:46;;;;;;;3.22;1.83;;;;;;;7.92;42.37;94686.13;4944610;28;20617;-76
2022/01/22 10:21:14;;;;;;;3.60;2.42;;;;;;;8.40;42.21;94677.56;4946082;28;20056;-77
2022/01/22 10:23:41;;;;;;;3.55;2.88;;;;;;;8.26;41.35;94676.41;4933749;28;20389;-76
2022/01/22 10:26:11;;;;;;;3.47;2.17;;;;;;;7.77;41.90;94670.47;4939063;28;20019;-76
2022/01/22 10:28:41;;;;;;;4.38;2.15;;;;;;;7.71;42.89;94668.53;4959430;28;20043;-76
2022/01/22 10:31:10;;;;;;;3.45;2.42;;;;;;;7.96;43.02;94657.25;4948913;28;20812;-76
2022/01/22 10:33:36;;;;;;;3.78;1.85;;;;;;;5.00;50.08;94654.63;4937720;28;20125;-76
2022/01/22 10:36:22;;;;;;;2.55;2.17;;;;;;;1.03;57.86;94673.09;4949604;28;20504;-77
2022/01/22 10:38:50;;;;;;;2.50;2.00;;;;;;;1.08;58.55;94671.00;4950218;28;20029;-79
2022/01/22 10:41:32;;;;;;;5.68;3.10;;;;;;;1.14;58.95;94662.06;4956669;28;20019;-80
2022/01/22 10:44:01;;;;;;;2.83;1.88;;;;;;;1.38;58.73;94648.16;4956449;28;20133;-78
2022/01/22 10:49:35;;;;;;;4.35;2.08;;;;;;;3.11;73.87;94656.56;4983537;28;20039;-81
2022/01/22 10:52:10;;;;;;;3.47;2.28;;;;;;;2.44;62.15;94629.09;4946281;28;20047;-77
2022/01/22 10:54:38;;;;;;;3.08;1.92;;;;;;;1.92;60.35;94636.97;4951410;28;20069;-77
2022/01/22 10:57:17;;;;;;;3.22;1.90;;;;;;;1.17;63.63;94631.22;4951603;28;20045;-76
2022/01/22 10:59:53;;;;;;;4.00;2.33;;;;;;;0.86;66.70;94623.47;4931214;28;20038;-76
2022/01/22 11:02:34;;;;;;;3.80;2.33;;;;;;;0.43;67.67;94618.34;4941433;28;20059;-75
2022/01/22 11:05:00;;;;;;;4.05;2.30;;;;;;;0.46;66.12;94610.47;4938021;28;20031;-75
2022/01/22 11:07:25;;;;;;;3.10;2.63;;;;;;;0.17;66.59;94603.44;4928949;28;20035;-76
2022/01/22 11:09:51;;;;;;;5.65;3.00;;;;;;;0.56;68.23;94597.84;4943115;28;20019;-76
2022/01/22 11:12:16;;;;;;;3.83;3.05;;;;;;;0.49;66.98;94594.94;4944109;28;20019;-75
2022/01/22 11:14:43;;;;;;;5.03;2.60;;;;;;;0.63;64.91;94593.06;4938264;28;20020;-75
2022/01/22 11:17:09;;;;;;;3.63;2.25;;;;;;;0.45;64.06;94608.06;4942619;28;20427;-75
2022/01/22 11:19:37;;;;;;;3.20;2.28;;;;;;;-0.01;64.62;94613.28;4941905;28;20046;-76
2022/01/22 11:22:08;;;;;;;3.65;2.50;;;;;;;0.41;65.88;94599.84;4943366;28;20400;-76
2022/01/22 11:24:37;;;;;;;3.00;2.67;;;;;;;0.61;65.95;94598.28;4957246;28;20035;-76
2022/01/22 11:27:04;;;;;;;6.50;2.45;;;;;;;0.28;66.13;94588.16;4929278;29;20050;-75
2022/01/22 11:29:54;;;;;;;4.82;2.08;;;;;;;-0.47;68.75;94592.22;4947263;29;20109;-75
2022/01/22 11:32:25;;;;;;;3.60;2.00;;;;;;;-0.34;69.10;94592.91;4898354;29;20044;-75
2022/01/22 11:34:53;;;;;;;2.97;2.20;;;;;;;-0.07;68.57;94594.22;4930400;29;20528;-75
2022/01/22 11:37:47;;;;;;;9.52;6.43;;;;;;;-0.54;70.42;94589.31;4932601;29;20412;-74
2022/01/22 11:40:14;;;;;;;8.15;4.85;;;;;;;-0.54;69.85;94579.13;4945823;29;20047;-76
2022/01/22 11:42:59;;;;;;;4.78;2.90;;;;;;;-0.52;70.44;94592.56;4949248;28;20122;-76
2022/01/22 11:45:36;;;;;;;5.03;3.42;;;;;;;-0.46;70.73;94591.28;4949912;28;20085;-76
2022/01/22 11:48:13;;;;;;;6.68;3.40;;;;;;;-0.30;70.97;94579.88;4942539;29;20086;-76
2022/01/22 11:50:40;;;;;;;3.78;2.88;;;;;;;-0.29;70.27;94578.94;4949395;28;20118;-75
2022/01/22 11:53:26;;;;;;;3.83;2.90;;;;;;;-0.37;68.67;94571.06;4946413;28;20408;-75
2022/01/22 11:56:09;;;;;;;3.45;2.38;;;;;;;0.28;67.36;94572.91;4931473;29;20077;-75
2022/01/22 11:58:57;;;;;;;6.80;2.88;;;;;;;0.03;69.59;94573.97;4947913;29;20434;-74
2022/01/22 12:01:40;;;;;;;3.95;2.50;;;;;;;-0.14;70.18;94576.97;4945374;28;20043;-75
2022/01/22 12:04:07;;;;;;;4.03;2.35;;;;;;;0.10;70.68;94574.31;4949123;28;20047;-74
2022/01/22 12:06:34;;;;;;;4.20;2.65;;;;;;;-0.09;69.56;94574.88;4947318;28;20046;-75
2022/01/22 12:09:07;;;;;;;2.45;1.77;;;;;;;-0.12;70.26;94560.66;4945143;28;20122;-74
2022/01/22 12:14:53;;;;;;;4.55;2.75;;;;;;;-0.10;70.47;94560.56;4940118;28;20073;-76
2022/01/22 12:17:27;;;;;;;2.53;2.00;;;;;;;-0.30;71.06;94569.69;4944868;28;20142;-75
2022/01/22 12:20:16;;;;;;;4.65;2.85;;;;;;;-0.28;72.36;94565.28;4947982;29;20482;-75
2022/01/22 12:22:38;;;;;;;4.43;2.85;;;;;;;-0.26;72.90;94577.91;4946035;29;20063;-74
2022/01/22 12:25:30;;;;;;;4.22;2.45;;;;;;;-0.48;75.91;94570.28;4949293;28;20098;-74
2022/01/22 12:27:57;;;;;;;3.55;2.50;;;;;;;-0.77;78.55;94573.22;4941614;28;20058;-74
2022/01/22 12:30:38;;;;;;;3.75;2.45;;;;;;;-0.80;80.50;94583.59;4946388;29;20354;-75
2022/01/22 12:33:07;;;;;;;3.42;2.75;;;;;;;-1.07;84.51;94585.59;4941412;28;20496;-74
2022/01/22 12:35:36;;;;;;;3.03;2.75;;;;;;;-1.07;84.77;94585.59;4930421;29;20023;-74
2022/01/22 12:38:21;;;;;;;6.03;3.78;;;;;;;-0.80;86.36;94587.88;4947547;28;20035;-73
2022/01/22 12:40:52;;;;;;;4.45;3.30;;;;;;;-0.91;88.17;94581.03;4947660;28;20431;-74
2022/01/22 12:43:28;;;;;;;;;;;;;;;-0.80;89.03;94585.31;4932331;29;20043;-74
2022/01/22 12:45:59;;;;;;;17.60;8.82;;;;;;;-0.83;91.78;94578.75;4947082;29;19914;-74
2022/01/22 12:48:29;;;;;;;9.38;6.63;;;;;;;-0.98;93.15;94591.75;4945057;28;20035;-74
2022/01/22 12:51:01;;;;;;;8.23;5.20;;;;;;;-0.98;93.99;94590.03;4948808;28;20031;-74
2022/01/22 12:53:26;;;;;;;7.03;3.83;;;;;;;-1.31;95.50;94583.09;4945827;28;20225;-74
2022/01/22 12:58:20;;;;;;;6.28;4.40;;;;;;;-1.28;97.88;94580.31;4945781;29;20028;-74
2022/01/22 13:00:46;;;;;;;7.68;3.63;;;;;;;-1.27;98.65;94578.59;4946837;29;20031;-74
2022/01/22 13:03:11;;;;;;;7.57;3.78;;;;;;;-1.26;99.06;94582.75;4946510;28;20050;-74
2022/01/22 13:05:37;;;;;;;5.22;4.13;;;;;;;-0.96;99.30;94588.16;4927899;29;20118;-75
2022/01/22 13:08:06;;;;;;;5.93;4.53;;;;;;;-1.16;99.93;94582.00;4921000;29;20098;-75
2022/01/22 13:10:43;;;;;;;4.88;4.38;;;;;;;-1.07;99.37;94586.44;4927489;29;20060;-74
2022/01/22 13:13:10;;;;;;;5.97;4.50;;;;;;;-0.99;98.86;94587.56;4944179;29;20034;-75
2022/01/22 13:15:36;;;;;;;6.07;4.88;;;;;;;-1.04;99.12;94575.22;4946481;29;20036;-74
2022/01/22 13:18:03;;;;;;;7.05;5.03;;;;;;;-1.11;98.25;94574.84;4945759;28;20035;-75
2022/01/22 13:20:35;;;;;;;5.05;3.67;;;;;;;-0.76;96.97;94566.41;4929798;28;20039;-75
2022/01/22 13:23:18;;;;;;;4.63;3.50;;;;;;;-1.08;93.76;94566.19;4945290;28;20032;-74
2022/01/22 13:25:43;;;;;;;6.00;3.30;;;;;;;-1.01;93.11;94564.84;4947290;28;20063;-75
2022/01/22 13:28:13;;;;;;;4.03;2.92;;;;;;;-0.89;93.30;94563.94;4945309;29;20067;-75
2022/01/22 13:30:43;;;;;;;4.45;3.30;;;;;;;-0.92;92.66;94561.63;4947224;28;20050;-75
2022/01/22 13:36:10;;;;;;;7.43;4.10;;;;;;;-1.30;93.43;94551.69;4943991;28;20054;-75
2022/01/22 13:49:30;;;;;;;5.43;4.07;;;;;;;-1.22;93.41;94561.31;4942747;28;20083;-74
2022/01/22 13:52:00;;;;;;;6.97;4.20;;;;;;;-1.39;93.92;94543.94;4947372;28;20032;-75
2022/01/22 13:54:30;;;;;;;7.45;4.25;;;;;;;-1.42;93.37;94549.22;4945611;29;20032;-75
2022/01/22 13:56:59;;;;;;;6.40;3.97;;;;;;;-1.46;92.36;94552.91;4946272;29;20039;-74
2022/01/22 13:59:34;;;;;;;4.47;3.50;;;;;;;-1.60;91.84;94554.69;4930981;29;20043;-74
2022/01/22 14:02:20;;;;;;;5.15;3.50;;;;;;;-1.62;93.27;94554.00;4934836;28;20572;-74
2022/01/22 14:05:00;;;;;;;4.97;3.40;;;;;;;-1.81;93.20;94550.31;4946141;29;20106;-74
2022/01/22 14:07:30;;;;;;;5.57;3.45;;;;;;;-1.53;93.49;94547.44;4949864;28;20198;-74
2022/01/22 14:09:59;;;;;;;7.15;3.45;;;;;;;-1.67;94.06;94552.69;4948653;29;20027;-74
2022/01/22 14:12:33;;;;;;;7.45;4.88;;;;;;;-1.65;93.25;94554.22;4950769;28;20600;-74
2022/01/22 14:15:12;;;;;;;6.05;3.53;;;;;;;-1.64;93.66;94547.41;4932449;29;20031;-74
2022/01/22 14:17:53;;;;;;;6.57;4.28;;;;;;;-1.63;94.26;94539.66;4950217;29;20034;-74
2022/01/22 14:20:23;;;;;;;5.22;4.00;;;;;;;-1.69;94.66;94541.81;4949375;28;20023;-74
2022/01/22 14:22:54;;;;;;;5.95;4.10;;;;;;;-1.74;95.04;94544.72;4942629;28;20035;-74
2022/01/22 14:25:20;;;;;;;6.47;4.15;;;;;;;-1.84;94.88;94553.06;4949246;29;20089;-74
2022/01/22 14:27:57;;;;;;;6.40;3.83;;;;;;;-1.76;94.06;94546.53;4947982;29;20420;-74
2022/01/22 14:30:40;;;;;;;5.53;3.60;;;;;;;-1.99;94.41;94547.31;4942929;28;20046;-74
2022/01/22 14:33:07;;;;;;;3.80;2.97;;;;;;;-1.92;93.41;94545.16;4947881;28;21029;-75
2022/01/22 14:35:34;;;;;;;7.47;2.95;;;;;;;-2.15;93.53;94556.88;4948441;29;20110;-74
2022/01/22 14:38:22;;;;;;;5.13;2.97;;;;;;;-1.99;94.29;94554.91;4949165;28;20023;-75
2022/01/22 14:44:24;;;;;;;4.55;3.03;;;;;;;-2.15;95.10;94546.72;4913479;28;21240;-75
2022/01/22 14:47:03;;;;;;;3.80;3.45;;;;;;;-2.26;94.71;94552.56;4946842;29;20094;-75
2022/01/22 14:49:38;;;;;;;8.67;3.73;;;;;;;-2.48;95.67;94542.25;4931747;29;20027;-75
2022/01/22 14:52:04;;;;;;;3.58;2.92;;;;;;;-2.32;96.86;94552.97;4947988;29;20062;-75
2022/01/22 14:54:33;;;;;;;4.47;3.30;;;;;;;-2.43;97.38;94550.34;4947566;28;20519;-75
2022/01/22 14:56:58;;;;;;;6.35;3.53;;;;;;;-2.48;98.69;94556.63;4949506;29;20067;-75
2022/01/22 14:59:24;;;;;;;9.10;4.68;;;;;;;-2.59;98.92;94547.22;4948102;29;20114;-75
2022/01/22 15:01:50;;;;;;;29.08;6.03;;;;;;;-2.59;99.38;94554.81;4957785;28;20061;-75
2022/01/22 15:04:16;;;;;;;8.75;4.65;;;;;;;-2.70;99.88;94564.88;4935847;28;20026;-75
2022/01/22 15:06:41;;;;;;;6.68;4.20;;;;;;;-2.77;100.00;94556.84;4950805;28;20051;-75
2022/01/22 15:09:07;;;;;;;6.85;4.10;;;;;;;-2.81;100.00;94567.28;4940291;28;20027;-75
2022/01/22 15:11:34;;;;;;;4.43;3.45;;;;;;;-2.79;100.00;94568.78;4966949;28;20099;-75
2022/01/22 15:14:04;;;;;;;8.07;3.67;;;;;;;-2.82;100.00;94569.00;4949415;28;20022;-75
2022/01/22 15:16:37;;;;;;;4.53;4.10;;;;;;;-2.81;100.00;94564.75;4961894;28;20532;-75
2022/01/22 15:19:04;;;;;;;5.65;4.90;;;;;;;-2.98;100.00;94570.09;4950605;28;20089;-76
2022/01/22 15:21:30;;;;;;;9.35;5.38;;;;;;;-2.93;100.00;94565.56;4934802;28;20396;-75
2022/01/22 15:23:56;;;;;;;8.77;5.97;;;;;;;-2.92;100.00;94578.09;4949721;28;20030;-77
2022/01/22 15:26:22;;;;;;;15.00;7.07;;;;;;;-3.00;100.00;94575.25;4932090;28;20035;-75
2022/01/22 15:28:48;;;;;;;11.07;7.28;;;;;;;-3.11;100.00;94579.41;4928757;29;20035;-76
2022/01/22 15:31:28;;;;;;;10.77;6.80;;;;;;;-3.16;100.00;94577.16;4936497;28;20030;-75
2022/01/22 15:34:06;;;;;;;12.23;7.68;;;;;;;-3.21;100.00;94589.28;4946534;28;20492;-75
2022/01/22 15:36:32;;;;;;;15.68;8.68;;;;;;;-3.02;100.00;94582.16;4961045;28;20042;-74
2022/01/22 15:38:57;;;;;;;13.38;8.00;;;;;;;-3.13;100.00;94582.03;4966796;28;20023;-75
2022/01/22 15:41:23;;;;;;;10.52;8.52;;;;;;;-3.22;100.00;94582.63;4949450;28;20041;-75
2022/01/22 15:43:49;;;;;;;12.40;7.30;;;;;;;-3.17;100.00;94572.19;4943096;28;20031;-75
2022/01/22 15:46:14;;;;;;;10.52;7.45;;;;;;;-3.08;100.00;94581.75;4942592;28;20035;-75
2022/01/22 15:48:42;;;;;;;13.70;7.60;;;;;;;-3.01;100.00;94588.00;4940104;28;20523;-75
2022/01/22 15:51:07;;;;;;;15.25;7.22;;;;;;;-3.04;100.00;94588.22;4960091;28;20067;-75
2022/01/22 15:53:33;;;;;;;16.45;8.63;;;;;;;-3.02;100.00;94597.34;4957548;28;20065;-75
2022/01/22 15:55:59;;;;;;;13.18;8.55;;;;;;;-3.08;100.00;94597.72;4944923;28;20035;-76
2022/01/22 15:58:24;;;;;;;12.48;8.20;;;;;;;-3.09;100.00;94598.66;4961748;28;20026;-75
2022/01/22 16:00:50;;;;;;;12.45;7.35;;;;;;;-3.10;100.00;94604.63;4943021;28;20583;-75
2022/01/22 16:03:17;;;;;;;12.10;8.68;;;;;;;-3.14;100.00;94607.44;4959805;28;20033;-75
2022/01/22 16:05:45;;;;;;;13.48;8.77;;;;;;;-3.13;100.00;94599.75;4961883;28;20034;-75
2022/01/22 16:08:12;;;;;;;8.95;7.57;;;;;;;-3.10;100.00;94614.75;4960807;28;20031;-75
2022/01/22 16:10:38;;;;;;;9.27;8.38;;;;;;;-3.05;100.00;94624.59;4945297;28;20504;-75
2022/01/22 16:13:04;;;;;;;12.02;8.43;;;;;;;-3.10;100.00;94614.75;4945439;28;20033;-75
2022/01/22 16:15:30;;;;;;;11.90;8.45;;;;;;;-3.11;100.00;94619.91;4963582;28;20034;-75
2022/01/22 16:17:56;;;;;;;12.68;9.32;;;;;;;-3.09;100.00;94623.16;4945526;28;20042;-76
2022/01/22 16:20:22;;;;;;;10.07;8.18;;;;;;;-3.16;100.00;94629.50;4943541;28;20022;-75
2022/01/22 16:22:48;;;;;;;8.55;7.63;;;;;;;-3.12;100.00;94636.00;4963178;28;20545;-76
2022/01/22 16:25:14;;;;;;;15.02;9.48;;;;;;;-3.06;100.00;94636.44;4961157;28;20038;-76
2022/01/22 16:27:40;;;;;;;10.80;8.00;;;;;;;-3.09;100.00;94641.69;4962518;28;20054;-76
2022/01/22 16:30:06;;;;;;;8.75;6.50;;;;;;;-3.08;100.00;94643.28;4962145;28;20041;-76
2022/01/22 16:32:32;;;;;;;7.45;5.60;;;;;;;-2.99;100.00;94644.44;4962576;28;20046;-76
2022/01/22 16:34:57;;;;;;;6.50;5.20;;;;;;;-3.17;100.00;94623.63;4945358;28;20403;-76
2022/01/22 16:37:25;;;;;;;7.20;5.45;;;;;;;-3.18;100.00;94637.22;4954651;28;20026;-76
2022/01/22 16:39:51;;;;;;;8.18;6.35;;;;;;;-3.16;100.00;94637.91;4944762;28;21020;-76
2022/01/22 16:42:18;;;;;;;6.78;6.07;;;;;;;-3.14;100.00;94645.41;4973418;28;20057;-76
2022/01/22 16:58:06;;;;;;;9.57;4.97;;;;;;;-3.21;100.00;94665.22;4980489;28;20039;-76
2022/01/22 17:00:37;;;;;;;7.00;5.10;;;;;;;-3.15;100.00;94666.56;4932194;28;20483;-76
2022/01/22 17:03:07;;;;;;;7.65;5.43;;;;;;;-3.25;100.00;94657.03;4943510;28;20058;-75
2022/01/22 17:05:34;;;;;;;11.25;5.28;;;;;;;-3.37;100.00;94651.94;4934228;28;20035;-76
2022/01/22 17:08:14;;;;;;;5.93;4.55;;;;;;;-3.30;100.00;94656.50;4960423;28;20043;-76
2022/01/22 17:15:51;;;;;;;8.00;5.25;;;;;;;-3.45;100.00;94661.69;4958497;28;20572;-76
2022/01/22 17:18:17;;;;;;;6.68;4.47;;;;;;;-3.44;100.00;94663.31;4960332;28;20110;-76
2022/01/22 17:20:42;;;;;;;6.53;4.82;;;;;;;-3.43;100.00;94664.94;4961929;28;20567;-76
2022/01/22 17:23:07;;;;;;;5.82;4.72;;;;;;;-3.34;100.00;94671.97;4945767;28;20066;-76
2022/01/22 17:25:33;;;;;;;7.03;5.30;;;;;;;-3.34;100.00;94677.81;4943843;28;20106;-76
2022/01/22 17:27:59;;;;;;;6.30;5.13;;;;;;;-3.28;100.00;94685.06;4926291;29;20525;-77
2022/01/22 17:30:25;;;;;;;5.97;5.38;;;;;;;-3.38;100.00;94695.84;4940543;28;20122;-76
2022/01/22 17:32:50;;;;;;;7.90;6.18;;;;;;;-3.47;100.00;94704.00;4961581;28;20024;-76
2022/01/22 17:35:15;;;;;;;8.63;5.97;;;;;;;-3.37;100.00;94707.59;4946149;28;20027;-76
2022/01/22 17:37:44;;;;;;;13.15;8.35;;;;;;;-3.43;100.00;94703.69;4947216;28;20042;-76
2022/01/22 17:40:10;;;;;;;11.10;6.40;;;;;;;-3.44;100.00;94716.47;4961964;28;20054;-76
2022/01/22 17:42:35;;;;;;;8.90;5.93;;;;;;;-3.52;100.00;94724.50;4940905;28;20485;-76
2022/01/22 17:45:09;;;;;;;9.27;6.15;;;;;;;-3.50;100.00;94722.69;4968948;28;20023;-76